sensor_id;sensor_type;location;lat;lon;timestamp;P1;durP1;ratioP1;P2;durP2;ratioP2
28844;SDS011;15976;47.938;7.758;2022-12-05T00:01:18;38.92;;;16.30;;
28844;SDS011;15976;47.938;7.758;2022-12-05T00:03:49;43.55;;;17.17;;
28844;SDS011;15976;47.938;7.758;2022-12-05T00:06:18;43.37;;;17.07;;
28844;SDS011;15976;47.938;7.758;2022-12-05T00:08:46;36.58;;;17.27;;
28844;SDS011;15976;47.938;7.758;2022-12-05T00:11:16;38.05;;;18.05;;
28844;SDS011;15976;47.938;7.758;2022-12-05T00:13:48;37.83;;;16.60;;
28844;SDS011;15976;47.938;7.758;2022-12-05T00:16:17;40.55;;;18.00;;
28844;SDS011;15976;47.938;7.758;2022-12-05T00:18:46;40.58;;;18.23;;
28844;SDS011;15976;47.938;7.758;2022-12-05T00:21:14;41.58;;;17.55;;
28844;SDS011;15976;47.938;7.758;2022-12-05T00:23:52;40.42;;;17.30;;
28844;SDS011;15976;47.938;7.758;2022-12-05T00:26:20;40.63;;;17.27;;
28844;SDS011;15976;47.938;7.758;2022-12-05T00:28:48;39.33;;;17.25;;
28844;SDS011;15976;47.938;7.758;2022-12-05T00:31:17;46.58;;;19.35;;
28844;SDS011;15976;47.938;7.758;2022-12-05T00:33:46;44.08;;;17.58;;
28844;SDS011;15976;47.938;7.758;2022-12-05T00:36:19;45.38;;;17.40;;
28844;SDS011;15976;47.938;7.758;2022-12-05T00:38:48;40.97;;;18.17;;
28844;SDS011;15976;47.938;7.758;2022-12-05T00:41:16;44.53;;;18.88;;
28844;SDS011;15976;47.938;7.758;2022-12-05T00:43:45;39.40;;;18.08;;
28844;SDS011;15976;47.938;7.758;2022-12-05T00:46:13;41.20;;;18.60;;
28844;SDS011;15976;47.938;7.758;2022-12-05T00:48:45;38.47;;;18.10;;
28844;SDS011;15976;47.938;7.758;2022-12-05T00:51:14;35.35;;;16.42;;
28844;SDS011;15976;47.938;7.758;2022-12-05T00:53:43;34.33;;;16.60;;
28844;SDS011;15976;47.938;7.758;2022-12-05T00:56:13;38.70;;;18.27;;
28844;SDS011;15976;47.938;7.758;2022-12-05T00:58:42;39.25;;;17.60;;
28844;SDS011;15976;47.938;7.758;2022-12-05T01:01:17;37.33;;;17.63;;
28844;SDS011;15976;47.938;7.758;2022-12-05T01:03:50;37.28;;;16.58;;
28844;SDS011;15976;47.938;7.758;2022-12-05T01:06:19;38.95;;;17.00;;
28844;SDS011;15976;47.938;7.758;2022-12-05T01:08:47;38.40;;;16.77;;
28844;SDS011;15976;47.938;7.758;2022-12-05T01:11:15;38.22;;;17.90;;
28844;SDS011;15976;47.938;7.758;2022-12-05T01:13:43;37.55;;;16.95;;
28844;SDS011;15976;47.938;7.758;2022-12-05T01:16:22;39.45;;;18.35;;
28844;SDS011;15976;47.938;7.758;2022-12-05T01:18:51;38.33;;;17.55;;
28844;SDS011;15976;47.938;7.758;2022-12-05T01:21:19;38.40;;;17.25;;
28844;SDS011;15976;47.938;7.758;2022-12-05T01:23:46;40.17;;;17.45;;
28844;SDS011;15976;47.938;7.758;2022-12-05T01:26:14;38.20;;;16.75;;
28844;SDS011;15976;47.938;7.758;2022-12-05T01:28:43;40.22;;;17.40;;
28844;SDS011;15976;47.938;7.758;2022-12-05T01:31:15;37.95;;;17.67;;
28844;SDS011;15976;47.938;7.758;2022-12-05T01:33:50;39.97;;;17.65;;
28844;SDS011;15976;47.938;7.758;2022-12-05T01:36:18;36.63;;;16.40;;
28844;SDS011;15976;47.938;7.758;2022-12-05T01:38:46;38.53;;;17.15;;
28844;SDS011;15976;47.938;7.758;2022-12-05T01:41:15;39.42;;;17.95;;
28844;SDS011;15976;47.938;7.758;2022-12-05T01:46:26;38.90;;;17.17;;
28844;SDS011;15976;47.938;7.758;2022-12-05T01:48:59;37.88;;;17.55;;
28844;SDS011;15976;47.938;7.758;2022-12-05T01:51:32;36.90;;;16.75;;
28844;SDS011;15976;47.938;7.758;2022-12-05T01:54:01;39.20;;;16.38;;
28844;SDS011;15976;47.938;7.758;2022-12-05T01:56:30;39.25;;;16.35;;
28844;SDS011;15976;47.938;7.758;2022-12-05T01:58:59;35.45;;;16.23;;
28844;SDS011;15976;47.938;7.758;2022-12-05T02:01:27;38.42;;;16.92;;
28844;SDS011;15976;47.938;7.758;2022-12-05T02:03:55;34.80;;;16.05;;
28844;SDS011;15976;47.938;7.758;2022-12-05T02:06:24;35.17;;;15.75;;
28844;SDS011;15976;47.938;7.758;2022-12-05T02:08:53;34.97;;;16.35;;
28844;SDS011;15976;47.938;7.758;2022-12-05T02:11:20;32.10;;;15.10;;
28844;SDS011;15976;47.938;7.758;2022-12-05T02:14:06;26.15;;;11.68;;
28844;SDS011;15976;47.938;7.758;2022-12-05T02:20:13;34.00;;;15.50;;
28844;SDS011;15976;47.938;7.758;2022-12-05T02:22:36;31.77;;;14.50;;
28844;SDS011;15976;47.938;7.758;2022-12-05T02:28:12;18.27;;;8.73;;
28844;SDS011;15976;47.938;7.758;2022-12-05T02:31:06;10.20;;;4.97;;
28844;SDS011;15976;47.938;7.758;2022-12-05T02:41:39;4.72;;;2.83;;
28844;SDS011;15976;47.938;7.758;2022-12-05T02:46:50;4.80;;;3.10;;
28844;SDS011;15976;47.938;7.758;2022-12-05T02:49:20;7.68;;;4.30;;
28844;SDS011;15976;47.938;7.758;2022-12-05T02:51:54;3.65;;;2.60;;
28844;SDS011;15976;47.938;7.758;2022-12-05T02:54:28;6.43;;;3.10;;
28844;SDS011;15976;47.938;7.758;2022-12-05T02:57:01;5.72;;;3.10;;
28844;SDS011;15976;47.938;7.758;2022-12-05T02:59:29;3.10;;;2.20;;
28844;SDS011;15976;47.938;7.758;2022-12-05T03:01:56;3.28;;;2.05;;
28844;SDS011;15976;47.938;7.758;2022-12-05T03:04:23;3.45;;;1.70;;
28844;SDS011;15976;47.938;7.758;2022-12-05T03:09:50;13.77;;;6.55;;
28844;SDS011;15976;47.938;7.758;2022-12-05T03:12:24;20.80;;;9.13;;
28844;SDS011;15976;47.938;7.758;2022-12-05T03:15:05;26.40;;;12.57;;
28844;SDS011;15976;47.938;7.758;2022-12-05T03:17:43;26.17;;;12.07;;
28844;SDS011;15976;47.938;7.758;2022-12-05T03:20:26;29.05;;;13.25;;
28844;SDS011;15976;47.938;7.758;2022-12-05T03:25:34;32.20;;;13.95;;
28844;SDS011;15976;47.938;7.758;2022-12-05T03:28:36;31.30;;;14.85;;
28844;SDS011;15976;47.938;7.758;2022-12-05T03:31:13;31.80;;;14.85;;
28844;SDS011;15976;47.938;7.758;2022-12-05T03:33:44;33.47;;;15.07;;
28844;SDS011;15976;47.938;7.758;2022-12-05T03:39:02;29.65;;;14.00;;
28844;SDS011;15976;47.938;7.758;2022-12-05T03:41:46;33.85;;;14.73;;
28844;SDS011;15976;47.938;7.758;2022-12-05T03:44:22;31.13;;;14.20;;
28844;SDS011;15976;47.938;7.758;2022-12-05T03:47:09;15.25;;;7.65;;
28844;SDS011;15976;47.938;7.758;2022-12-05T03:49:42;10.25;;;5.93;;
28844;SDS011;15976;47.938;7.758;2022-12-05T03:52:35;11.98;;;6.40;;
28844;SDS011;15976;47.938;7.758;2022-12-05T03:55:24;9.48;;;5.35;;
28844;SDS011;15976;47.938;7.758;2022-12-05T03:57:58;9.50;;;5.53;;
28844;SDS011;15976;47.938;7.758;2022-12-05T04:00:29;10.73;;;6.50;;
28844;SDS011;15976;47.938;7.758;2022-12-05T04:08:23;11.00;;;6.50;;
28844;SDS011;15976;47.938;7.758;2022-12-05T04:10:56;8.88;;;5.45;;
28844;SDS011;15976;47.938;7.758;2022-12-05T04:13:47;10.05;;;6.32;;
28844;SDS011;15976;47.938;7.758;2022-12-05T04:16:19;10.63;;;6.00;;
28844;SDS011;15976;47.938;7.758;2022-12-05T04:22:27;9.98;;;5.97;;
28844;SDS011;15976;47.938;7.758;2022-12-05T04:24:55;10.77;;;6.40;;
28844;SDS011;15976;47.938;7.758;2022-12-05T04:30:32;10.88;;;6.13;;
28844;SDS011;15976;47.938;7.758;2022-12-05T04:33:06;12.80;;;6.80;;
28844;SDS011;15976;47.938;7.758;2022-12-05T04:36:02;10.57;;;6.63;;
28844;SDS011;15976;47.938;7.758;2022-12-05T04:41:18;12.77;;;7.47;;
28844;SDS011;15976;47.938;7.758;2022-12-05T04:43:50;13.32;;;7.18;;
28844;SDS011;15976;47.938;7.758;2022-12-05T04:46:19;12.18;;;7.65;;
28844;SDS011;15976;47.938;7.758;2022-12-05T04:48:50;11.15;;;6.72;;
28844;SDS011;15976;47.938;7.758;2022-12-05T04:51:22;9.98;;;6.13;;
28844;SDS011;15976;47.938;7.758;2022-12-05T04:53:56;11.93;;;6.65;;
28844;SDS011;15976;47.938;7.758;2022-12-05T04:56:28;11.77;;;7.25;;
28844;SDS011;15976;47.938;7.758;2022-12-05T04:58:59;11.23;;;7.05;;
28844;SDS011;15976;47.938;7.758;2022-12-05T05:01:27;10.68;;;6.25;;
28844;SDS011;15976;47.938;7.758;2022-12-05T05:04:12;10.27;;;6.55;;
28844;SDS011;15976;47.938;7.758;2022-12-05T05:06:44;12.73;;;6.97;;
28844;SDS011;15976;47.938;7.758;2022-12-05T05:09:11;11.15;;;6.07;;
28844;SDS011;15976;47.938;7.758;2022-12-05T05:11:38;11.65;;;6.70;;
28844;SDS011;15976;47.938;7.758;2022-12-05T05:14:05;11.90;;;6.47;;
28844;SDS011;15976;47.938;7.758;2022-12-05T05:16:34;11.57;;;6.35;;
28844;SDS011;15976;47.938;7.758;2022-12-05T05:19:03;12.02;;;6.68;;
28844;SDS011;15976;47.938;7.758;2022-12-05T05:21:32;12.68;;;7.07;;
28844;SDS011;15976;47.938;7.758;2022-12-05T05:24:01;10.93;;;6.50;;
28844;SDS011;15976;47.938;7.758;2022-12-05T05:26:30;12.40;;;7.07;;
28844;SDS011;15976;47.938;7.758;2022-12-05T05:28:59;11.20;;;6.40;;
28844;SDS011;15976;47.938;7.758;2022-12-05T05:31:26;11.50;;;7.00;;
28844;SDS011;15976;47.938;7.758;2022-12-05T05:33:54;13.13;;;7.93;;
28844;SDS011;15976;47.938;7.758;2022-12-05T05:36:23;12.10;;;6.95;;
28844;SDS011;15976;47.938;7.758;2022-12-05T05:38:52;12.88;;;7.57;;
28844;SDS011;15976;47.938;7.758;2022-12-05T05:41:25;12.77;;;7.35;;
28844;SDS011;15976;47.938;7.758;2022-12-05T05:44:00;13.32;;;7.80;;
28844;SDS011;15976;47.938;7.758;2022-12-05T05:46:29;13.45;;;8.45;;
28844;SDS011;15976;47.938;7.758;2022-12-05T05:48:58;13.63;;;7.78;;
28844;SDS011;15976;47.938;7.758;2022-12-05T05:51:25;13.95;;;7.57;;
28844;SDS011;15976;47.938;7.758;2022-12-05T05:53:55;12.48;;;7.78;;
28844;SDS011;15976;47.938;7.758;2022-12-05T05:56:23;13.05;;;7.45;;
28844;SDS011;15976;47.938;7.758;2022-12-05T05:58:58;14.23;;;8.00;;
28844;SDS011;15976;47.938;7.758;2022-12-05T06:01:27;17.30;;;10.02;;
28844;SDS011;15976;47.938;7.758;2022-12-05T06:03:55;16.38;;;8.73;;
28844;SDS011;15976;47.938;7.758;2022-12-05T06:06:24;12.57;;;7.75;;
28844;SDS011;15976;47.938;7.758;2022-12-05T06:08:51;11.75;;;7.40;;
28844;SDS011;15976;47.938;7.758;2022-12-05T06:11:24;14.15;;;7.40;;
28844;SDS011;15976;47.938;7.758;2022-12-05T06:13:56;13.10;;;7.97;;
28844;SDS011;15976;47.938;7.758;2022-12-05T06:16:26;12.23;;;7.78;;
28844;SDS011;15976;47.938;7.758;2022-12-05T06:18:54;12.85;;;7.30;;
28844;SDS011;15976;47.938;7.758;2022-12-05T06:21:22;11.82;;;6.90;;
28844;SDS011;15976;47.938;7.758;2022-12-05T06:23:49;17.40;;;7.70;;
28844;SDS011;15976;47.938;7.758;2022-12-05T06:26:18;13.23;;;7.75;;
28844;SDS011;15976;47.938;7.758;2022-12-05T06:28:47;13.70;;;8.40;;
28844;SDS011;15976;47.938;7.758;2022-12-05T06:31:19;13.23;;;8.32;;
28844;SDS011;15976;47.938;7.758;2022-12-05T06:33:48;13.05;;;8.00;;
28844;SDS011;15976;47.938;7.758;2022-12-05T06:36:16;14.00;;;8.23;;
28844;SDS011;15976;47.938;7.758;2022-12-05T06:38:45;16.20;;;9.70;;
28844;SDS011;15976;47.938;7.758;2022-12-05T06:41:13;15.07;;;8.52;;
28844;SDS011;15976;47.938;7.758;2022-12-05T06:43:42;18.50;;;10.55;;
28844;SDS011;15976;47.938;7.758;2022-12-05T06:46:10;20.73;;;11.60;;
28844;SDS011;15976;47.938;7.758;2022-12-05T06:48:39;17.80;;;10.15;;
28844;SDS011;15976;47.938;7.758;2022-12-05T06:51:10;13.15;;;7.72;;
28844;SDS011;15976;47.938;7.758;2022-12-05T06:53:38;20.30;;;10.35;;
28844;SDS011;15976;47.938;7.758;2022-12-05T06:56:06;26.08;;;13.65;;
28844;SDS011;15976;47.938;7.758;2022-12-05T06:58:39;28.25;;;14.32;;
28844;SDS011;15976;47.938;7.758;2022-12-05T07:01:11;23.03;;;12.03;;
28844;SDS011;15976;47.938;7.758;2022-12-05T07:03:58;28.52;;;14.20;;
28844;SDS011;15976;47.938;7.758;2022-12-05T07:06:26;25.63;;;13.25;;
28844;SDS011;15976;47.938;7.758;2022-12-05T07:08:53;14.88;;;8.43;;
28844;SDS011;15976;47.938;7.758;2022-12-05T07:11:20;16.63;;;9.05;;
28844;SDS011;15976;47.938;7.758;2022-12-05T07:13:47;18.58;;;10.52;;
28844;SDS011;15976;47.938;7.758;2022-12-05T07:16:14;28.50;;;15.45;;
28844;SDS011;15976;47.938;7.758;2022-12-05T07:18:41;13.02;;;7.82;;
28844;SDS011;15976;47.938;7.758;2022-12-05T07:21:10;32.70;;;19.70;;
28844;SDS011;15976;47.938;7.758;2022-12-05T07:23:40;12.07;;;8.43;;
28844;SDS011;15976;47.938;7.758;2022-12-05T07:26:11;20.02;;;12.48;;
28844;SDS011;15976;47.938;7.758;2022-12-05T07:28:43;11.65;;;7.53;;
28844;SDS011;15976;47.938;7.758;2022-12-05T07:31:12;9.43;;;5.72;;
28844;SDS011;15976;47.938;7.758;2022-12-05T07:33:41;6.65;;;4.32;;
28844;SDS011;15976;47.938;7.758;2022-12-05T07:36:13;9.00;;;5.53;;
28844;SDS011;15976;47.938;7.758;2022-12-05T07:38:42;5.47;;;4.03;;
28844;SDS011;15976;47.938;7.758;2022-12-05T07:41:10;5.25;;;3.47;;
28844;SDS011;15976;47.938;7.758;2022-12-05T07:43:43;3.45;;;2.65;;
28844;SDS011;15976;47.938;7.758;2022-12-05T07:46:10;8.50;;;5.03;;
28844;SDS011;15976;47.938;7.758;2022-12-05T07:48:38;61.83;;;20.98;;
28844;SDS011;15976;47.938;7.758;2022-12-05T07:51:06;38.85;;;15.10;;
28844;SDS011;15976;47.938;7.758;2022-12-05T07:53:34;19.10;;;8.27;;
28844;SDS011;15976;47.938;7.758;2022-12-05T07:56:03;21.38;;;9.63;;
28844;SDS011;15976;47.938;7.758;2022-12-05T07:58:33;25.90;;;12.02;;
28844;SDS011;15976;47.938;7.758;2022-12-05T08:01:05;8.85;;;5.03;;
28844;SDS011;15976;47.938;7.758;2022-12-05T08:03:34;6.25;;;4.40;;
28844;SDS011;15976;47.938;7.758;2022-12-05T08:06:07;9.00;;;5.53;;
28844;SDS011;15976;47.938;7.758;2022-12-05T08:08:36;7.43;;;4.20;;
28844;SDS011;15976;47.938;7.758;2022-12-05T08:11:07;8.52;;;5.82;;
28844;SDS011;15976;47.938;7.758;2022-12-05T08:13:38;15.25;;;8.63;;
28844;SDS011;15976;47.938;7.758;2022-12-05T08:16:06;51.60;;;24.88;;
28844;SDS011;15976;47.938;7.758;2022-12-05T08:21:12;25.08;;;11.70;;
28844;SDS011;15976;47.938;7.758;2022-12-05T08:23:41;10.60;;;5.38;;
28844;SDS011;15976;47.938;7.758;2022-12-05T08:26:10;21.30;;;9.63;;
28844;SDS011;15976;47.938;7.758;2022-12-05T08:29:06;16.13;;;9.02;;
28844;SDS011;15976;47.938;7.758;2022-12-05T08:31:38;18.52;;;11.15;;
28844;SDS011;15976;47.938;7.758;2022-12-05T08:44:58;4.90;;;2.97;;
28844;SDS011;15976;47.938;7.758;2022-12-05T08:47:26;4.32;;;3.60;;
28844;SDS011;15976;47.938;7.758;2022-12-05T08:49:53;5.85;;;4.05;;
28844;SDS011;15976;47.938;7.758;2022-12-05T08:52:20;4.53;;;3.30;;
28844;SDS011;15976;47.938;7.758;2022-12-05T08:54:48;7.55;;;4.93;;
28844;SDS011;15976;47.938;7.758;2022-12-05T08:57:15;5.50;;;2.83;;
28844;SDS011;15976;47.938;7.758;2022-12-05T08:59:42;5.50;;;4.20;;
28844;SDS011;15976;47.938;7.758;2022-12-05T09:02:09;3.38;;;2.05;;
28844;SDS011;15976;47.938;7.758;2022-12-05T09:04:36;4.15;;;3.05;;
28844;SDS011;15976;47.938;7.758;2022-12-05T09:07:04;5.75;;;4.00;;
28844;SDS011;15976;47.938;7.758;2022-12-05T09:09:33;3.42;;;2.33;;
28844;SDS011;15976;47.938;7.758;2022-12-05T09:12:00;6.28;;;4.10;;
28844;SDS011;15976;47.938;7.758;2022-12-05T09:14:27;6.00;;;3.10;;
28844;SDS011;15976;47.938;7.758;2022-12-05T09:16:58;6.03;;;5.00;;
28844;SDS011;15976;47.938;7.758;2022-12-05T09:19:26;5.63;;;3.60;;
28844;SDS011;15976;47.938;7.758;2022-12-05T09:21:56;15.82;;;8.95;;
28844;SDS011;15976;47.938;7.758;2022-12-05T09:24:23;9.23;;;5.65;;
28844;SDS011;15976;47.938;7.758;2022-12-05T09:26:51;14.70;;;9.20;;
28844;SDS011;15976;47.938;7.758;2022-12-05T09:29:18;5.20;;;3.40;;
28844;SDS011;15976;47.938;7.758;2022-12-05T09:31:46;10.77;;;7.18;;
28844;SDS011;15976;47.938;7.758;2022-12-05T09:34:14;10.25;;;6.28;;
28844;SDS011;15976;47.938;7.758;2022-12-05T09:36:44;4.90;;;3.00;;
28844;SDS011;15976;47.938;7.758;2022-12-05T09:39:11;7.45;;;4.88;;
28844;SDS011;15976;47.938;7.758;2022-12-05T09:47:06;7.72;;;4.90;;
28844;SDS011;15976;47.938;7.758;2022-12-05T09:49:46;15.27;;;7.13;;
28844;SDS011;15976;47.938;7.758;2022-12-05T09:52:40;9.15;;;4.20;;
28844;SDS011;15976;47.938;7.758;2022-12-05T09:55:10;5.50;;;3.63;;
28844;SDS011;15976;47.938;7.758;2022-12-05T10:00:15;5.45;;;3.72;;
28844;SDS011;15976;47.938;7.758;2022-12-05T10:05:24;6.40;;;4.00;;
28844;SDS011;15976;47.938;7.758;2022-12-05T10:11:27;12.45;;;6.20;;
28844;SDS011;15976;47.938;7.758;2022-12-05T10:14:01;15.00;;;6.72;;
28844;SDS011;15976;47.938;7.758;2022-12-05T10:17:03;8.20;;;5.03;;
28844;SDS011;15976;47.938;7.758;2022-12-05T10:19:46;10.88;;;6.55;;
28844;SDS011;15976;47.938;7.758;2022-12-05T10:24:51;8.68;;;5.55;;
28844;SDS011;15976;47.938;7.758;2022-12-05T10:27:45;6.43;;;4.47;;
28844;SDS011;15976;47.938;7.758;2022-12-05T10:30:21;8.73;;;3.85;;
28844;SDS011;15976;47.938;7.758;2022-12-05T10:35:35;6.22;;;3.72;;
28844;SDS011;15976;47.938;7.758;2022-12-05T10:38:16;6.40;;;4.13;;
28844;SDS011;15976;47.938;7.758;2022-12-05T10:40:57;8.18;;;4.63;;
28844;SDS011;15976;47.938;7.758;2022-12-05T10:43:29;6.90;;;4.13;;
28844;SDS011;15976;47.938;7.758;2022-12-05T10:45:58;4.25;;;2.83;;
28844;SDS011;15976;47.938;7.758;2022-12-05T10:48:26;13.93;;;6.85;;
28844;SDS011;15976;47.938;7.758;2022-12-05T10:50:54;18.05;;;8.45;;
28844;SDS011;15976;47.938;7.758;2022-12-05T10:53:24;12.77;;;5.72;;
28844;SDS011;15976;47.938;7.758;2022-12-05T10:55:54;22.52;;;10.73;;
28844;SDS011;15976;47.938;7.758;2022-12-05T10:58:47;16.80;;;7.68;;
28844;SDS011;15976;47.938;7.758;2022-12-05T11:01:25;4.75;;;3.33;;
28844;SDS011;15976;47.938;7.758;2022-12-05T11:04:08;9.68;;;5.00;;
28844;SDS011;15976;47.938;7.758;2022-12-05T11:06:52;6.55;;;4.25;;
28844;SDS011;15976;47.938;7.758;2022-12-05T11:09:20;5.75;;;3.35;;
28844;SDS011;15976;47.938;7.758;2022-12-05T11:17:32;4.15;;;2.83;;
28844;SDS011;15976;47.938;7.758;2022-12-05T11:22:52;6.30;;;3.43;;
28844;SDS011;15976;47.938;7.758;2022-12-05T11:25:23;4.97;;;3.30;;
28844;SDS011;15976;47.938;7.758;2022-12-05T11:27:50;7.30;;;3.85;;
28844;SDS011;15976;47.938;7.758;2022-12-05T11:30:21;6.82;;;4.13;;
28844;SDS011;15976;47.938;7.758;2022-12-05T11:32:49;6.40;;;4.20;;
28844;SDS011;15976;47.938;7.758;2022-12-05T11:35:26;5.03;;;3.58;;
28844;SDS011;15976;47.938;7.758;2022-12-05T11:37:57;7.72;;;3.55;;
28844;SDS011;15976;47.938;7.758;2022-12-05T12:11:52;6.57;;;4.22;;
28844;SDS011;15976;47.938;7.758;2022-12-05T12:17:29;8.07;;;4.72;;
28844;SDS011;15976;47.938;7.758;2022-12-05T12:26:05;6.35;;;4.07;;
28844;SDS011;15976;47.938;7.758;2022-12-05T12:29:03;7.82;;;4.88;;
28844;SDS011;15976;47.938;7.758;2022-12-05T12:39:50;6.78;;;4.35;;
28844;SDS011;15976;47.938;7.758;2022-12-05T12:42:46;7.57;;;4.53;;
28844;SDS011;15976;47.938;7.758;2022-12-05T12:51:23;10.57;;;6.13;;
28844;SDS011;15976;47.938;7.758;2022-12-05T13:02:24;9.05;;;5.10;;
28844;SDS011;15976;47.938;7.758;2022-12-05T13:05:00;12.02;;;6.35;;
28844;SDS011;15976;47.938;7.758;2022-12-05T13:07:53;8.70;;;5.25;;
28844;SDS011;15976;47.938;7.758;2022-12-05T13:10:44;12.80;;;6.10;;
28844;SDS011;15976;47.938;7.758;2022-12-05T13:13:18;12.85;;;6.43;;
28844;SDS011;15976;47.938;7.758;2022-12-05T13:15:57;8.05;;;4.90;;
28844;SDS011;15976;47.938;7.758;2022-12-05T13:18:28;9.05;;;5.80;;
28844;SDS011;15976;47.938;7.758;2022-12-05T13:20:56;8.43;;;5.18;;
28844;SDS011;15976;47.938;7.758;2022-12-05T13:23:26;8.20;;;5.25;;
28844;SDS011;15976;47.938;7.758;2022-12-05T13:25:55;10.85;;;6.20;;
28844;SDS011;15976;47.938;7.758;2022-12-05T13:30:53;7.10;;;4.60;;
28844;SDS011;15976;47.938;7.758;2022-12-05T13:33:24;10.30;;;5.82;;
28844;SDS011;15976;47.938;7.758;2022-12-05T13:35:56;6.73;;;4.30;;
28844;SDS011;15976;47.938;7.758;2022-12-05T13:38:56;6.18;;;4.00;;
28844;SDS011;15976;47.938;7.758;2022-12-05T13:41:47;5.93;;;4.13;;
28844;SDS011;15976;47.938;7.758;2022-12-05T14:03:54;7.43;;;5.07;;
28844;SDS011;15976;47.938;7.758;2022-12-05T14:09:04;4.70;;;3.58;;
28844;SDS011;15976;47.938;7.758;2022-12-05T14:17:29;5.53;;;4.13;;
28844;SDS011;15976;47.938;7.758;2022-12-05T14:33:30;9.07;;;5.72;;
28844;SDS011;15976;47.938;7.758;2022-12-05T14:36:03;9.48;;;5.50;;
28844;SDS011;15976;47.938;7.758;2022-12-05T14:38:33;10.68;;;6.43;;
28844;SDS011;15976;47.938;7.758;2022-12-05T14:44:02;11.88;;;6.75;;
28844;SDS011;15976;47.938;7.758;2022-12-05T14:46:38;10.20;;;5.88;;
28844;SDS011;15976;47.938;7.758;2022-12-05T14:52:17;7.32;;;3.90;;
28844;SDS011;15976;47.938;7.758;2022-12-05T14:54:56;5.35;;;3.60;;
28844;SDS011;15976;47.938;7.758;2022-12-05T14:57:28;5.93;;;3.92;;
28844;SDS011;15976;47.938;7.758;2022-12-05T14:59:58;5.47;;;3.50;;
28844;SDS011;15976;47.938;7.758;2022-12-05T15:02:42;4.88;;;3.70;;
28844;SDS011;15976;47.938;7.758;2022-12-05T15:05:23;6.10;;;3.92;;
28844;SDS011;15976;47.938;7.758;2022-12-05T15:07:53;9.15;;;4.72;;
28844;SDS011;15976;47.938;7.758;2022-12-05T15:10:30;6.57;;;4.32;;
28844;SDS011;15976;47.938;7.758;2022-12-05T15:13:11;6.53;;;4.55;;
28844;SDS011;15976;47.938;7.758;2022-12-05T15:15:43;7.45;;;5.13;;
28844;SDS011;15976;47.938;7.758;2022-12-05T15:23:59;10.05;;;6.13;;
28844;SDS011;15976;47.938;7.758;2022-12-05T15:26:34;13.52;;;9.50;;
28844;SDS011;15976;47.938;7.758;2022-12-05T15:31:56;13.15;;;7.38;;
28844;SDS011;15976;47.938;7.758;2022-12-05T15:37:11;47.00;;;21.25;;
28844;SDS011;15976;47.938;7.758;2022-12-05T15:40:31;19.33;;;12.07;;
28844;SDS011;15976;47.938;7.758;2022-12-05T15:42:40;25.85;;;14.02;;
28844;SDS011;15976;47.938;7.758;2022-12-05T15:47:49;16.13;;;7.72;;
28844;SDS011;15976;47.938;7.758;2022-12-05T15:50:21;9.02;;;5.10;;
28844;SDS011;15976;47.938;7.758;2022-12-05T15:53:23;5.72;;;4.30;;
28844;SDS011;15976;47.938;7.758;2022-12-05T15:55:57;13.55;;;6.95;;
28844;SDS011;15976;47.938;7.758;2022-12-05T15:58:35;26.02;;;13.70;;
28844;SDS011;15976;47.938;7.758;2022-12-05T16:01:10;32.72;;;16.50;;
28844;SDS011;15976;47.938;7.758;2022-12-05T16:06:22;13.45;;;8.82;;
28844;SDS011;15976;47.938;7.758;2022-12-05T16:08:56;16.50;;;9.32;;
28844;SDS011;15976;47.938;7.758;2022-12-05T16:11:25;16.02;;;8.70;;
28844;SDS011;15976;47.938;7.758;2022-12-05T16:14:00;16.63;;;8.98;;
28844;SDS011;15976;47.938;7.758;2022-12-05T16:16:30;24.17;;;12.35;;
28844;SDS011;15976;47.938;7.758;2022-12-05T16:19:04;34.20;;;14.45;;
28844;SDS011;15976;47.938;7.758;2022-12-05T16:21:46;19.27;;;11.23;;
28844;SDS011;15976;47.938;7.758;2022-12-05T16:24:29;24.58;;;11.50;;
28844;SDS011;15976;47.938;7.758;2022-12-05T16:29:29;52.45;;;22.67;;
28844;SDS011;15976;47.938;7.758;2022-12-05T16:31:59;41.95;;;17.77;;
28844;SDS011;15976;47.938;7.758;2022-12-05T16:34:28;46.67;;;19.95;;
28844;SDS011;15976;47.938;7.758;2022-12-05T16:36:58;27.63;;;13.48;;
28844;SDS011;15976;47.938;7.758;2022-12-05T16:39:26;42.42;;;17.75;;
28844;SDS011;15976;47.938;7.758;2022-12-05T16:41:54;13.77;;;7.47;;
28844;SDS011;15976;47.938;7.758;2022-12-05T16:46:56;25.80;;;10.45;;
28844;SDS011;15976;47.938;7.758;2022-12-05T16:49:34;19.60;;;8.30;;
28844;SDS011;15976;47.938;7.758;2022-12-05T16:52:11;7.63;;;4.80;;
28844;SDS011;15976;47.938;7.758;2022-12-05T16:54:40;5.93;;;3.97;;
28844;SDS011;15976;47.938;7.758;2022-12-05T16:57:08;18.70;;;9.98;;
28844;SDS011;15976;47.938;7.758;2022-12-05T16:59:38;15.75;;;10.85;;
28844;SDS011;15976;47.938;7.758;2022-12-05T17:02:15;31.92;;;19.02;;
28844;SDS011;15976;47.938;7.758;2022-12-05T17:04:44;11.52;;;7.93;;
28844;SDS011;15976;47.938;7.758;2022-12-05T17:07:12;8.35;;;5.53;;
28844;SDS011;15976;47.938;7.758;2022-12-05T17:09:39;14.15;;;8.07;;
28844;SDS011;15976;47.938;7.758;2022-12-05T17:12:10;11.35;;;7.85;;
28844;SDS011;15976;47.938;7.758;2022-12-05T17:14:44;8.07;;;5.32;;
28844;SDS011;15976;47.938;7.758;2022-12-05T17:17:13;13.25;;;7.03;;
28844;SDS011;15976;47.938;7.758;2022-12-05T17:19:42;11.23;;;5.18;;
28844;SDS011;15976;47.938;7.758;2022-12-05T17:22:10;18.75;;;11.98;;
28844;SDS011;15976;47.938;7.758;2022-12-05T17:24:40;10.05;;;7.57;;
28844;SDS011;15976;47.938;7.758;2022-12-05T17:27:11;23.92;;;12.50;;
28844;SDS011;15976;47.938;7.758;2022-12-05T17:29:39;14.52;;;8.27;;
28844;SDS011;15976;47.938;7.758;2022-12-05T17:32:08;35.70;;;26.42;;
28844;SDS011;15976;47.938;7.758;2022-12-05T17:34:37;26.10;;;19.58;;
28844;SDS011;15976;47.938;7.758;2022-12-05T17:37:04;32.47;;;21.85;;
28844;SDS011;15976;47.938;7.758;2022-12-05T17:39:31;5.45;;;4.32;;
28844;SDS011;15976;47.938;7.758;2022-12-05T17:41:59;10.68;;;7.50;;
28844;SDS011;15976;47.938;7.758;2022-12-05T17:44:26;29.98;;;13.98;;
28844;SDS011;15976;47.938;7.758;2022-12-05T17:46:54;28.40;;;17.77;;
28844;SDS011;15976;47.938;7.758;2022-12-05T17:49:21;15.73;;;10.35;;
28844;SDS011;15976;47.938;7.758;2022-12-05T17:51:48;40.70;;;34.28;;
28844;SDS011;15976;47.938;7.758;2022-12-05T17:54:39;44.33;;;22.02;;
28844;SDS011;15976;47.938;7.758;2022-12-05T17:57:06;21.05;;;11.85;;
28844;SDS011;15976;47.938;7.758;2022-12-05T17:59:33;14.18;;;8.90;;
28844;SDS011;15976;47.938;7.758;2022-12-05T18:02:00;25.92;;;12.63;;
28844;SDS011;15976;47.938;7.758;2022-12-05T18:04:27;31.00;;;15.57;;
28844;SDS011;15976;47.938;7.758;2022-12-05T18:06:55;17.33;;;9.75;;
28844;SDS011;15976;47.938;7.758;2022-12-05T18:09:23;17.40;;;9.40;;
28844;SDS011;15976;47.938;7.758;2022-12-05T18:11:51;10.85;;;6.47;;
28844;SDS011;15976;47.938;7.758;2022-12-05T18:14:22;9.27;;;6.32;;
28844;SDS011;15976;47.938;7.758;2022-12-05T18:16:51;7.18;;;4.78;;
28844;SDS011;15976;47.938;7.758;2022-12-05T18:19:18;12.25;;;7.50;;
28844;SDS011;15976;47.938;7.758;2022-12-05T18:21:46;11.43;;;7.80;;
28844;SDS011;15976;47.938;7.758;2022-12-05T18:24:13;10.80;;;7.00;;
28844;SDS011;15976;47.938;7.758;2022-12-05T18:26:41;12.75;;;7.70;;
28844;SDS011;15976;47.938;7.758;2022-12-05T18:29:08;12.18;;;7.80;;
28844;SDS011;15976;47.938;7.758;2022-12-05T18:31:36;17.08;;;10.07;;
28844;SDS011;15976;47.938;7.758;2022-12-05T18:34:07;12.05;;;7.93;;
28844;SDS011;15976;47.938;7.758;2022-12-05T18:36:34;6.70;;;4.53;;
28844;SDS011;15976;47.938;7.758;2022-12-05T18:39:03;6.90;;;5.03;;
28844;SDS011;15976;47.938;7.758;2022-12-05T18:41:30;6.80;;;4.63;;